Time;durP1;ratioP1;P1;durP2;ratioP2;P2;SDS_P1;SDS_P2;PMS_P1;PMS_P2;Temp;Humidity;BMP_temperature;BMP_pressure;BME280_temperature;BME280_humidity;BME280_pressure;Samples;Min_cycle;Max_cycle;Signal;HPM_P1;HPM_P2
2023/07/04 00:01:20;;;;;;;5.37;3.40;;;18.90;99.90;;;;;;5029289;28;20490;-71
2023/07/04 00:03:50;;;;;;;4.77;3.20;;;18.90;99.90;;;;;;5032664;28;20451;-71
2023/07/04 00:06:17;;;;;;;3.83;2.83;;;18.90;99.90;;;;;;5040984;28;20470;-71
2023/07/04 00:08:43;;;;;;;3.77;3.00;;;18.90;99.90;;;;;;5039569;28;20439;-71
2023/07/04 00:11:09;;;;;;;3.23;2.90;;;18.70;99.90;;;;;;5035352;28;20459;-71
2023/07/04 00:13:37;;;;;;;2.80;2.60;;;18.70;99.90;;;;;;5039004;28;20464;-71
2023/07/04 00:16:06;;;;;;;3.40;2.60;;;18.80;99.90;;;;;;5046463;28;20459;-71
2023/07/04 00:18:32;;;;;;;7.03;3.67;;;18.80;99.90;;;;;;5047617;28;20998;-72
2023/07/04 00:20:59;;;;;;;4.70;2.70;;;18.90;99.90;;;;;;5039128;28;20483;-71
2023/07/04 00:23:28;;;;;;;5.10;3.20;;;19.20;99.90;;;;;;5036126;28;20290;-71
2023/07/04 00:25:54;;;;;;;4.00;3.10;;;19.20;99.90;;;;;;5032161;28;20550;-71
2023/07/04 00:28:21;;;;;;;3.13;2.57;;;19.20;99.90;;;;;;5035755;28;20516;-72
2023/07/04 00:30:48;;;;;;;5.87;3.17;;;19.30;99.90;;;;;;5035355;28;20463;-71
2023/07/04 00:33:16;;;;;;;4.43;2.90;;;19.40;99.90;;;;;;5036735;28;20460;-71
2023/07/04 00:35:43;;;;;;;3.07;2.60;;;19.40;99.90;;;;;;5044940;28;20590;-71
2023/07/04 00:38:09;;;;;;;3.40;2.63;;;19.50;99.90;;;;;;5032697;28;21287;-72
2023/07/04 00:40:35;;;;;;;3.07;2.30;;;19.50;99.90;;;;;;5027222;28;20459;-71
2023/07/04 00:43:04;;;;;;;7.00;3.03;;;19.50;99.90;;;;;;5013819;28;20451;-71
2023/07/04 00:45:35;;;;;;;4.80;3.23;;;19.50;99.90;;;;;;5044360;28;20217;-70
2023/07/04 00:48:03;;;;;;;3.33;2.57;;;19.50;99.90;;;;;;5028415;28;20527;-71
2023/07/04 00:50:39;;;;;;;3.10;2.80;;;19.50;99.90;;;;;;5035556;28;20827;-72
2023/07/04 00:53:09;;;;;;;2.70;2.20;;;19.50;99.90;;;;;;5035741;28;20484;-71
2023/07/04 00:55:38;;;;;;;3.80;2.97;;;19.50;99.90;;;;;;5036207;28;20985;-71
2023/07/04 00:58:07;;;;;;;3.93;3.60;;;19.50;99.90;;;;;;5023188;28;20463;-71
2023/07/04 01:00:36;;;;;;;5.30;3.10;;;19.40;99.90;;;;;;5043607;28;20974;-71
2023/07/04 01:03:11;;;;;;;3.90;3.10;;;19.40;99.90;;;;;;5047072;28;20455;-71
2023/07/04 01:05:41;;;;;;;3.33;2.97;;;19.40;99.90;;;;;;5032621;28;20999;-71
2023/07/04 01:08:12;;;;;;;3.00;2.80;;;19.30;99.90;;;;;;5045386;28;20555;-71
2023/07/04 01:10:43;;;;;;;4.20;2.90;;;19.30;99.90;;;;;;5029180;28;20452;-72
2023/07/04 01:13:38;;;;;;;3.10;2.80;;;19.30;99.90;;;;;;5020240;28;20820;-71
2023/07/04 01:16:09;;;;;;;3.33;3.03;;;19.20;99.90;;;;;;5027348;28;20481;-71
2023/07/04 01:18:37;;;;;;;2.87;2.60;;;19.20;99.90;;;;;;5038128;28;20471;-71
2023/07/04 01:21:05;;;;;;;4.77;3.03;;;19.20;99.90;;;;;;5032453;28;20512;-70
2023/07/04 01:23:36;;;;;;;4.27;2.93;;;19.10;99.90;;;;;;5028169;28;20471;-71
2023/07/04 01:26:21;;;;;;;4.27;2.70;;;19.10;99.90;;;;;;5036804;28;20538;-70
2023/07/04 01:28:51;;;;;;;3.83;3.27;;;19.10;99.90;;;;;;5029381;28;20485;-72
2023/07/04 01:31:20;;;;;;;5.33;3.00;;;19.10;99.90;;;;;;5033909;28;20836;-71
2023/07/04 01:33:49;;;;;;;4.20;3.10;;;19.00;99.90;;;;;;5040825;28;20439;-71
2023/07/04 01:36:24;;;;;;;3.90;3.00;;;19.00;99.90;;;;;;5036739;28;20563;-71
2023/07/04 01:38:51;;;;;;;3.53;3.20;;;19.00;99.90;;;;;;5032663;28;20871;-71
2023/07/04 01:41:18;;;;;;;3.40;2.80;;;19.00;99.90;;;;;;5034068;28;20455;-71
2023/07/04 01:43:50;;;;;;;3.53;2.70;;;18.90;99.90;;;;;;5025831;28;20505;-71
2023/07/04 01:46:18;;;;;;;6.50;3.30;;;18.90;99.90;;;;;;5013734;28;20443;-71
2023/07/04 01:48:43;;;;;;;3.87;2.90;;;18.90;99.90;;;;;;5028422;28;20467;-71
2023/07/04 01:51:09;;;;;;;4.73;3.13;;;18.90;99.90;;;;;;5036527;28;20460;-72
2023/07/04 01:53:35;;;;;;;3.57;3.10;;;18.80;99.90;;;;;;5023715;28;20229;-71
2023/07/04 01:56:00;;;;;;;5.90;2.90;;;18.80;99.90;;;;;;5023096;28;20225;-71
2023/07/04 01:58:26;;;;;;;3.80;3.00;;;18.80;99.90;;;;;;5032386;28;20204;-71
2023/07/04 02:00:52;;;;;;;5.70;3.20;;;18.80;99.90;;;;;;5016021;28;20241;-71
2023/07/04 02:03:17;;;;;;;4.87;3.63;;;18.80;99.90;;;;;;5016599;28;20589;-70
2023/07/04 02:05:44;;;;;;;4.33;3.10;;;18.70;99.90;;;;;;5035694;28;20640;-71
2023/07/04 02:08:11;;;;;;;4.80;3.30;;;18.70;99.90;;;;;;5051520;28;20728;-71
2023/07/04 02:10:36;;;;;;;5.97;4.07;;;18.70;99.90;;;;;;5047629;28;20464;-71
2023/07/04 02:13:02;;;;;;;3.43;2.97;;;18.70;99.90;;;;;;5038440;28;20518;-70
2023/07/04 02:15:28;;;;;;;3.40;2.77;;;18.70;99.90;;;;;;5035674;28;20713;-72
2023/07/04 02:17:54;;;;;;;3.03;2.73;;;18.60;99.90;;;;;;5040770;28;20259;-71
2023/07/04 02:20:20;;;;;;;3.90;2.80;;;18.60;99.90;;;;;;5037159;28;20209;-71
2023/07/04 02:22:46;;;;;;;3.20;2.60;;;18.50;99.90;;;;;;5035803;28;20270;-71
2023/07/04 02:25:12;;;;;;;5.27;3.40;;;18.50;99.90;;;;;;5027818;28;20456;-71
2023/07/04 02:27:39;;;;;;;4.87;3.00;;;18.50;99.90;;;;;;5040527;28;20435;-71
2023/07/04 02:30:05;;;;;;;7.73;3.43;;;18.40;99.90;;;;;;5045086;28;20448;-71
2023/07/04 02:32:31;;;;;;;3.70;3.30;;;18.30;99.90;;;;;;5027392;28;20477;-71
2023/07/04 02:34:57;;;;;;;5.20;3.63;;;18.20;99.90;;;;;;5028974;28;20862;-71
2023/07/04 02:37:22;;;;;;;6.77;3.83;;;18.20;99.90;;;;;;5043467;28;20248;-71
2023/07/04 02:39:49;;;;;;;4.60;3.23;;;18.20;99.90;;;;;;5046671;28;20259;-71
2023/07/04 02:42:16;;;;;;;5.90;4.03;;;18.10;99.90;;;;;;5019716;28;20722;-71
2023/07/04 02:44:42;;;;;;;5.17;4.03;;;18.10;99.90;;;;;;5044655;28;20443;-71
2023/07/04 02:47:07;;;;;;;5.20;4.27;;;18.10;99.90;;;;;;5036634;28;20469;-71
2023/07/04 02:49:38;;;;;;;6.97;4.53;;;18.00;99.90;;;;;;5044716;28;20223;-71
2023/07/04 02:52:06;;;;;;;7.80;3.83;;;18.00;99.90;;;;;;5036714;28;20455;-71
2023/07/04 02:54:32;;;;;;;5.67;4.03;;;17.90;99.90;;;;;;5034769;28;20451;-72
2023/07/04 02:56:58;;;;;;;6.13;3.87;;;17.90;99.90;;;;;;5041616;28;20459;-71
2023/07/04 02:59:24;;;;;;;4.70;3.77;;;17.90;99.90;;;;;;5039955;28;20216;-71
2023/07/04 03:01:51;;;;;;;5.03;3.90;;;17.80;99.90;;;;;;5036441;28;20447;-71
2023/07/04 03:04:17;;;;;;;3.90;3.33;;;17.80;99.90;;;;;;5041538;28;20241;-71
2023/07/04 03:06:44;;;;;;;7.33;4.03;;;17.60;99.90;;;;;;5038147;28;20466;-70
2023/07/04 03:09:11;;;;;;;6.57;4.53;;;17.60;99.90;;;;;;5032980;28;20450;-71
2023/07/04 03:11:37;;;;;;;4.50;4.00;;;17.50;99.90;;;;;;5036015;28;20549;-71
2023/07/04 03:14:02;;;;;;;7.30;4.00;;;17.50;99.90;;;;;;5023898;28;20742;-70
2023/07/04 03:16:28;;;;;;;4.43;3.47;;;17.50;99.90;;;;;;5037233;28;20228;-71
2023/07/04 03:18:55;;;;;;;5.37;3.57;;;17.50;99.90;;;;;;5030560;28;20462;-71
2023/07/04 03:21:21;;;;;;;7.93;4.30;;;17.40;99.90;;;;;;5031443;28;20482;-71
2023/07/04 03:23:48;;;;;;;7.10;4.00;;;17.30;99.90;;;;;;5031299;28;20975;-71
2023/07/04 03:26:14;;;;;;;6.60;4.20;;;17.20;99.90;;;;;;5043429;28;20459;-70
2023/07/04 03:28:39;;;;;;;7.07;3.87;;;17.30;99.90;;;;;;5034718;28;20285;-71
2023/07/04 03:31:06;;;;;;;6.23;3.87;;;17.40;99.90;;;;;;5034746;28;20233;-71
2023/07/04 03:33:32;;;;;;;4.73;3.80;;;17.40;99.90;;;;;;5050215;28;21016;-70
2023/07/04 03:35:58;;;;;;;5.60;4.00;;;17.20;99.90;;;;;;5045758;28;20474;-71
2023/07/04 03:38:25;;;;;;;6.30;3.80;;;17.10;99.90;;;;;;5028984;28;20622;-70
2023/07/04 03:40:51;;;;;;;5.00;3.73;;;16.90;99.90;;;;;;5034104;28;20447;-71
2023/07/04 03:43:17;;;;;;;9.67;4.10;;;16.80;99.90;;;;;;5036775;28;21013;-71
2023/07/04 03:45:46;;;;;;;5.87;4.60;;;16.90;99.90;;;;;;5036884;28;20534;-71
2023/07/04 03:48:12;;;;;;;5.53;3.83;;;16.90;99.90;;;;;;5043591;28;20227;-70
2023/07/04 03:50:39;;;;;;;4.17;3.73;;;16.80;99.90;;;;;;5035465;28;20466;-70
2023/07/04 03:53:04;;;;;;;6.37;4.37;;;16.80;99.90;;;;;;5035226;28;20225;-71
2023/07/04 03:55:30;;;;;;;9.33;4.47;;;16.90;99.90;;;;;;5026156;28;20933;-70
2023/07/04 03:57:56;;;;;;;6.63;4.00;;;17.00;99.90;;;;;;5030656;28;20217;-69
2023/07/04 04:00:22;;;;;;;7.13;4.00;;;16.90;99.90;;;;;;5037847;28;20238;-71
2023/07/04 04:02:54;;;;;;;6.80;3.40;;;16.80;99.90;;;;;;5036012;28;20459;-71
2023/07/04 04:05:20;;;;;;;5.20;4.27;;;16.90;99.90;;;;;;5050306;28;20456;-69
2023/07/04 04:07:49;;;;;;;12.60;4.70;;;16.90;99.90;;;;;;5027299;28;20447;-69
2023/07/04 04:10:18;;;;;;;5.50;3.73;;;16.80;99.90;;;;;;5039371;28;20620;-71
2023/07/04 04:12:44;;;;;;;5.47;3.83;;;16.90;99.90;;;;;;5034898;28;20462;-69
2023/07/04 04:15:11;;;;;;;10.10;4.90;;;16.90;99.90;;;;;;5038903;28;20550;-71
2023/07/04 04:17:37;;;;;;;6.97;4.13;;;16.90;99.90;;;;;;5044177;28;20820;-70
2023/07/04 04:20:06;;;;;;;7.90;4.30;;;16.90;99.90;;;;;;5035360;28;20482;-71
2023/07/04 04:22:32;;;;;;;5.67;4.30;;;16.90;99.90;;;;;;5024216;28;20232;-71
2023/07/04 04:24:58;;;;;;;4.93;4.20;;;16.90;99.90;;;;;;5044564;28;20480;-71
2023/07/04 04:27:27;;;;;;;9.80;4.13;;;16.90;99.90;;;;;;5032086;28;20499;-70
2023/07/04 04:29:53;;;;;;;7.13;4.60;;;16.90;99.90;;;;;;5033618;28;20228;-70
2023/07/04 04:32:21;;;;;;;6.90;3.77;;;16.90;99.90;;;;;;5036681;28;20459;-70
2023/07/04 04:34:48;;;;;;;15.07;5.57;;;16.90;99.90;;;;;;5045962;28;20473;-70
2023/07/04 04:37:13;;;;;;;6.23;4.20;;;16.90;99.90;;;;;;5029754;28;20459;-71
2023/07/04 04:39:39;;;;;;;7.73;4.10;;;16.90;99.90;;;;;;5038526;28;20474;-71
2023/07/04 04:42:05;;;;;;;5.47;4.33;;;17.00;99.90;;;;;;5025439;28;20227;-71
2023/07/04 04:44:30;;;;;;;7.50;4.13;;;16.90;99.90;;;;;;5037093;28;20229;-71
2023/07/04 04:46:56;;;;;;;6.00;4.30;;;16.80;99.90;;;;;;5040362;28;20461;-70
2023/07/04 04:49:22;;;;;;;6.07;4.03;;;16.90;99.90;;;;;;5030423;28;20225;-70
2023/07/04 04:51:51;;;;;;;5.53;4.30;;;16.90;99.90;;;;;;5041997;28;20661;-70
2023/07/04 04:54:17;;;;;;;4.30;3.90;;;16.90;99.90;;;;;;5055180;28;20241;-70
2023/07/04 04:56:46;;;;;;;5.93;4.23;;;17.00;99.90;;;;;;5020328;28;20549;-71
2023/07/04 04:59:12;;;;;;;9.23;4.50;;;16.90;99.90;;;;;;5033551;28;20447;-70
2023/07/04 05:01:38;;;;;;;3.77;3.40;;;16.90;99.90;;;;;;5027910;28;21011;-70
2023/07/04 05:04:04;;;;;;;5.50;3.77;;;16.90;99.90;;;;;;5029914;28;20239;-71
2023/07/04 05:06:30;;;;;;;13.70;4.40;;;16.90;99.90;;;;;;5039822;28;20535;-71
2023/07/04 05:08:56;;;;;;;8.70;4.10;;;17.00;99.90;;;;;;5034587;28;20515;-71
2023/07/04 05:11:22;;;;;;;7.80;4.00;;;17.00;99.90;;;;;;5038524;28;20468;-70
2023/07/04 05:13:49;;;;;;;10.97;4.50;;;17.10;99.90;;;;;;5028562;28;20267;-70
2023/07/04 05:16:18;;;;;;;4.23;3.77;;;17.10;99.90;;;;;;5046836;28;20225;-71
2023/07/04 05:18:45;;;;;;;7.33;3.70;;;17.10;99.90;;;;;;5053833;28;20510;-71
2023/07/04 05:21:17;;;;;;;6.37;4.50;;;17.10;99.90;;;;;;5046947;28;20451;-71
2023/07/04 05:23:45;;;;;;;3.90;3.37;;;17.10;99.90;;;;;;5029671;28;20823;-71
2023/07/04 05:26:14;;;;;;;4.23;3.83;;;17.20;99.90;;;;;;5026336;28;20494;-71
2023/07/04 05:28:40;;;;;;;7.57;3.30;;;17.20;99.90;;;;;;5033649;28;20537;-71
2023/07/04 05:31:08;;;;;;;5.07;4.50;;;17.30;99.90;;;;;;5040329;28;20980;-70
2023/07/04 05:33:34;;;;;;;7.07;4.20;;;17.30;99.90;;;;;;5047918;28;20469;-71
2023/07/04 05:36:14;;;;;;;5.47;4.40;;;17.30;99.90;;;;;;5062110;28;20984;-71
2023/07/04 05:38:40;;;;;;;5.20;3.83;;;17.30;99.90;;;;;;5024816;28;20456;-71
2023/07/04 05:41:11;;;;;;;6.63;3.60;;;17.20;99.90;;;;;;5041428;28;21077;-71
2023/07/04 05:43:38;;;;;;;4.60;3.80;;;17.20;99.90;;;;;;5041782;28;21049;-71
2023/07/04 05:46:04;;;;;;;7.03;3.97;;;17.20;99.90;;;;;;5028402;28;20459;-70
2023/07/04 05:48:30;;;;;;;9.93;4.00;;;17.30;99.90;;;;;;5045354;28;20464;-71
2023/07/04 05:51:00;;;;;;;7.60;3.80;;;17.30;99.90;;;;;;5035563;28;20447;-71
2023/07/04 05:53:30;;;;;;;6.70;3.60;;;17.30;99.90;;;;;;5039360;28;20797;-71
2023/07/04 05:56:17;;;;;;;7.30;4.00;;;17.30;99.90;;;;;;5044163;28;20474;-70
2023/07/04 05:58:57;;;;;;;4.87;3.73;;;17.30;99.90;;;;;;5035152;28;20954;-71
2023/07/04 06:01:39;;;;;;;4.80;4.00;;;17.20;99.90;;;;;;5047364;28;20482;-70
2023/07/04 06:04:07;;;;;;;5.90;4.20;;;17.20;99.90;;;;;;5031378;28;20541;-71
2023/07/04 06:06:34;;;;;;;8.03;4.20;;;17.20;99.90;;;;;;5042635;28;20470;-71
2023/07/04 06:09:02;;;;;;;6.57;4.13;;;17.30;99.90;;;;;;5044190;28;20455;-71
2023/07/04 06:11:31;;;;;;;6.27;4.03;;;17.40;99.90;;;;;;5035248;28;20468;-71
2023/07/04 06:13:57;;;;;;;6.70;3.73;;;17.40;99.90;;;;;;5029820;28;20452;-71
2023/07/04 06:16:23;;;;;;;5.40;3.90;;;17.30;99.90;;;;;;5027767;28;20479;-71
2023/07/04 06:18:49;;;;;;;7.90;4.30;;;17.30;99.90;;;;;;5041724;28;20216;-69
2023/07/04 06:21:20;;;;;;;6.10;3.00;;;17.30;99.90;;;;;;5042267;28;20224;-71
2023/07/04 06:23:45;;;;;;;8.20;3.80;;;17.40;99.90;;;;;;5042287;28;20239;-71
2023/07/04 06:26:12;;;;;;;10.57;4.10;;;17.30;99.90;;;;;;5040048;28;21045;-70
2023/07/04 06:28:39;;;;;;;4.10;3.20;;;17.30;99.90;;;;;;5037506;28;20218;-70
2023/07/04 06:31:07;;;;;;;3.70;3.37;;;17.30;99.90;;;;;;5020978;28;20462;-70
2023/07/04 06:33:33;;;;;;;8.00;3.97;;;17.40;99.90;;;;;;5042199;28;20528;-70
2023/07/04 06:35:59;;;;;;;6.63;3.90;;;17.40;99.90;;;;;;5038508;28;20479;-70
2023/07/04 06:38:25;;;;;;;6.27;3.20;;;17.40;99.90;;;;;;5048724;28;20459;-70
2023/07/04 06:40:59;;;;;;;6.87;3.37;;;17.50;99.90;;;;;;5049589;28;20545;-71
2023/07/04 06:43:27;;;;;;;5.20;3.60;;;17.60;99.90;;;;;;5050280;28;20976;-71
2023/07/04 06:45:54;;;;;;;7.57;3.20;;;17.60;99.90;;;;;;5043652;28;20507;-71
2023/07/04 06:48:24;;;;;;;5.00;3.23;;;17.60;99.90;;;;;;5029890;28;20439;-71
2023/07/04 06:51:17;;;;;;;5.90;3.53;;;17.70;99.90;;;;;;5046432;28;20542;-71
2023/07/04 06:53:43;;;;;;;3.73;3.13;;;17.80;99.90;;;;;;5041565;28;20501;-71
2023/07/04 06:56:11;;;;;;;5.67;3.33;;;17.80;99.90;;;;;;5025457;28;20462;-71
2023/07/04 06:58:42;;;;;;;6.17;3.27;;;17.80;99.90;;;;;;5049720;28;20471;-71
2023/07/04 07:01:10;;;;;;;3.83;3.27;;;17.80;99.90;;;;;;5035079;28;20546;-71
2023/07/04 07:03:36;;;;;;;8.93;3.30;;;17.90;99.90;;;;;;5041835;28;20470;-71
2023/07/04 07:06:04;;;;;;;2.80;2.50;;;18.00;99.90;;;;;;5041081;28;20550;-70
2023/07/04 07:08:30;;;;;;;5.97;3.20;;;18.00;99.90;;;;;;5038700;28;20474;-71
2023/07/04 07:10:58;;;;;;;5.13;3.00;;;18.10;99.90;;;;;;5031536;28;20451;-71
2023/07/04 07:13:25;;;;;;;5.07;3.30;;;18.20;99.90;;;;;;5039483;28;20525;-71
2023/07/04 07:15:51;;;;;;;9.50;4.40;;;18.30;99.90;;;;;;5043693;28;20489;-71
2023/07/04 07:18:16;;;;;;;6.33;3.00;;;18.30;99.70;;;;;;5036680;28;20985;-72
2023/07/04 07:20:42;;;;;;;5.83;3.20;;;18.30;99.50;;;;;;5040083;28;20463;-71
2023/07/04 07:23:09;;;;;;;4.50;3.07;;;18.30;99.80;;;;;;5061690;28;20746;-70
2023/07/04 07:25:36;;;;;;;4.43;2.80;;;18.40;99.70;;;;;;5045957;28;20228;-71
2023/07/04 07:28:02;;;;;;;3.80;2.63;;;18.50;99.70;;;;;;5044926;28;20538;-71
2023/07/04 07:30:27;;;;;;;4.63;2.60;;;18.60;99.60;;;;;;5046502;28;20450;-71
2023/07/04 07:32:53;;;;;;;4.50;3.30;;;18.70;99.20;;;;;;5036991;28;20428;-71
2023/07/04 07:35:19;;;;;;;6.97;3.10;;;18.80;99.10;;;;;;5033231;28;20549;-71
2023/07/04 07:37:44;;;;;;;8.60;2.87;;;18.80;99.00;;;;;;5068577;28;20227;-71
2023/07/04 07:40:10;;;;;;;4.17;2.50;;;19.00;99.00;;;;;;5041641;28;20228;-71
2023/07/04 07:42:36;;;;;;;6.67;2.73;;;19.00;98.50;;;;;;5030524;28;20221;-70
2023/07/04 07:45:02;;;;;;;3.30;3.00;;;19.10;98.40;;;;;;5049899;28;20473;-71
2023/07/04 07:47:28;;;;;;;7.27;4.07;;;19.20;98.40;;;;;;5045611;28;20243;-71
2023/07/04 07:49:54;;;;;;;7.97;3.37;;;19.20;98.30;;;;;;5044100;28;20501;-71
2023/07/04 07:52:21;;;;;;;3.10;2.80;;;19.20;98.10;;;;;;5026481;28;20296;-71
2023/07/04 07:54:46;;;;;;;4.57;3.10;;;19.30;98.20;;;;;;5045482;28;20478;-72
2023/07/04 07:57:12;;;;;;;6.27;3.07;;;19.40;98.30;;;;;;5048380;28;20498;-72
2023/07/04 07:59:38;;;;;;;4.00;2.77;;;19.50;98.40;;;;;;5046828;28;20239;-71
2023/07/04 08:02:04;;;;;;;2.93;2.47;;;19.60;97.90;;;;;;5036322;28;20221;-71
2023/07/04 08:04:29;;;;;;;5.83;3.17;;;19.80;97.60;;;;;;5052992;28;20277;-70
2023/07/04 08:06:55;;;;;;;8.53;3.83;;;19.80;96.80;;;;;;5050971;28;20873;-71
2023/07/04 08:09:20;;;;;;;9.40;3.30;;;19.90;96.70;;;;;;5044753;28;20217;-71
2023/07/04 08:11:48;;;;;;;5.43;2.97;;;19.90;97.00;;;;;;5047286;28;20247;-71
2023/07/04 08:14:15;;;;;;;5.50;3.60;;;20.10;96.80;;;;;;5041250;28;20590;-71
2023/07/04 08:16:45;;;;;;;4.17;2.80;;;20.10;96.50;;;;;;5043387;28;20554;-71
2023/07/04 08:19:11;;;;;;;6.80;3.30;;;20.20;96.70;;;;;;5037228;28;20829;-71
2023/07/04 08:21:37;;;;;;;3.97;2.77;;;20.40;95.80;;;;;;5044047;28;21009;-71
2023/07/04 08:24:10;;;;;;;3.27;2.93;;;20.40;95.30;;;;;;5034875;28;20454;-70
2023/07/04 08:26:37;;;;;;;6.77;3.13;;;20.60;95.40;;;;;;5047369;28;20221;-71
2023/07/04 08:29:02;;;;;;;4.20;3.30;;;20.60;94.60;;;;;;5041952;28;20538;-71
2023/07/04 08:31:28;;;;;;;7.10;3.63;;;20.80;94.80;;;;;;5052531;28;20562;-72
2023/07/04 08:33:54;;;;;;;3.67;2.87;;;20.80;95.00;;;;;;5040963;28;20252;-70
2023/07/04 08:36:20;;;;;;;6.57;3.33;;;20.90;95.10;;;;;;5033810;28;20252;-72
2023/07/04 08:38:48;;;;;;;4.17;2.90;;;21.00;94.70;;;;;;5049082;28;20243;-73
2023/07/04 08:41:44;;;;;;;4.00;2.90;;;21.00;94.80;;;;;;5044625;28;20813;-73
2023/07/04 08:44:12;;;;;;;6.60;3.00;;;21.20;95.00;;;;;;5053441;28;20450;-73
2023/07/04 08:47:04;;;;;;;3.97;2.77;;;21.50;92.60;;;;;;5013618;28;20890;-73
2023/07/04 08:49:47;;;;;;;5.73;3.20;;;21.50;92.50;;;;;;5034199;28;20527;-73
2023/07/04 08:52:38;;;;;;;4.17;3.30;;;21.50;92.50;;;;;;5031689;28;20462;-73
2023/07/04 08:55:13;;;;;;;3.83;3.43;;;21.70;92.70;;;;;;5039507;28;20461;-70
2023/07/04 08:57:51;;;;;;;4.73;3.20;;;21.80;91.70;;;;;;5045819;28;20454;-71
2023/07/04 09:00:38;;;;;;;9.07;3.27;;;21.80;91.80;;;;;;5047392;28;20998;-71
2023/07/04 09:03:15;;;;;;;3.53;3.00;;;21.90;90.90;;;;;;5030957;28;20453;-70
2023/07/04 09:06:09;;;;;;;5.17;3.20;;;22.20;90.50;;;;;;5023818;28;20458;-71
2023/07/04 09:08:59;;;;;;;3.37;2.90;;;22.30;90.10;;;;;;5050368;28;20515;-72
2023/07/04 09:11:25;;;;;;;3.93;2.83;;;22.20;90.30;;;;;;5033758;28;20474;-71
2023/07/04 09:14:05;;;;;;;3.13;2.83;;;22.40;89.00;;;;;;5035183;28;20542;-71
2023/07/04 09:16:42;;;;;;;4.10;3.27;;;22.40;86.90;;;;;;5047537;28;20563;-71
2023/07/04 09:19:10;;;;;;;4.03;3.23;;;22.60;86.60;;;;;;5039266;28;20537;-71
2023/07/04 09:21:36;;;;;;;4.30;3.30;;;22.60;86.60;;;;;;5047762;28;20988;-71
2023/07/04 09:24:03;;;;;;;3.53;3.03;;;22.80;84.90;;;;;;5027710;28;20561;-70
2023/07/04 09:26:44;;;;;;;4.83;3.10;;;22.90;85.00;;;;;;5055467;28;20462;-71
2023/07/04 09:29:11;;;;;;;5.90;3.30;;;23.00;84.50;;;;;;5052157;28;20515;-71
2023/07/04 09:31:40;;;;;;;4.37;3.90;;;23.20;79.50;;;;;;5039182;28;20533;-70
2023/07/04 09:34:12;;;;;;;4.13;3.40;;;23.10;78.30;;;;;;5030073;28;20570;-71
2023/07/04 09:36:39;;;;;;;4.03;3.63;;;23.10;80.90;;;;;;5038829;28;20535;-71
2023/07/04 09:39:06;;;;;;;3.97;3.20;;;23.20;79.40;;;;;;5052742;28;20454;-72
2023/07/04 09:41:39;;;;;;;3.60;3.30;;;23.30;79.50;;;;;;5042148;28;20463;-71
2023/07/04 09:44:16;;;;;;;5.50;3.70;;;23.40;79.40;;;;;;5046685;28;20894;-71
2023/07/04 09:46:50;;;;;;;5.10;3.60;;;23.70;78.10;;;;;;5035684;28;20480;-72
2023/07/04 09:49:24;;;;;;;4.20;3.80;;;23.60;78.30;;;;;;5048243;28;20454;-71
2023/07/04 09:52:03;;;;;;;6.20;4.43;;;23.90;77.50;;;;;;5051567;28;20487;-72
2023/07/04 09:54:34;;;;;;;7.60;3.63;;;24.00;75.90;;;;;;5035743;28;20474;-71
2023/07/04 09:57:23;;;;;;;4.17;3.47;;;23.90;77.30;;;;;;5041332;28;20460;-72
2023/07/04 09:59:53;;;;;;;4.73;3.57;;;24.10;75.60;;;;;;5033295;28;20532;-71
2023/07/04 10:02:31;;;;;;;6.80;4.43;;;24.00;77.20;;;;;;5039699;28;20551;-72
2023/07/04 10:04:57;;;;;;;4.83;4.20;;;24.10;77.60;;;;;;5027936;28;20465;-71
2023/07/04 10:07:25;;;;;;;4.97;3.97;;;24.30;73.50;;;;;;5047597;28;20467;-72
2023/07/04 10:09:55;;;;;;;4.90;4.47;;;24.40;72.80;;;;;;5052606;28;20228;-71
2023/07/04 10:12:22;;;;;;;5.07;4.03;;;24.40;74.80;;;;;;5043204;28;20451;-71
2023/07/04 10:14:50;;;;;;;4.60;4.17;;;24.50;73.60;;;;;;5021716;28;20450;-71
2023/07/04 10:17:20;;;;;;;6.30;4.23;;;24.50;75.40;;;;;;5040523;28;20475;-70
2023/07/04 10:19:54;;;;;;;6.10;4.57;;;24.60;73.70;;;;;;5054259;28;20439;-71
2023/07/04 10:22:41;;;;;;;5.50;4.77;;;24.50;74.60;;;;;;5045101;28;20450;-72
2023/07/04 10:25:16;;;;;;;5.00;4.50;;;24.90;70.10;;;;;;5050092;28;21393;-72
2023/07/04 10:27:45;;;;;;;6.73;5.03;;;25.10;68.50;;;;;;5045434;28;20461;-72
2023/07/04 10:30:16;;;;;;;6.77;5.20;;;25.10;69.30;;;;;;5032923;28;20456;-72
2023/07/04 10:32:55;;;;;;;6.20;4.77;;;25.20;69.10;;;;;;5045299;28;20542;-72
2023/07/04 10:35:25;;;;;;;5.20;4.50;;;25.10;70.00;;;;;;5056008;28;20477;-71
2023/07/04 10:38:22;;;;;;;5.43;4.90;;;25.20;68.70;;;;;;5039949;28;20449;-72
2023/07/04 10:40:49;;;;;;;5.30;4.10;;;25.40;69.70;;;;;;5051693;28;20450;-72
2023/07/04 10:43:28;;;;;;;4.80;4.00;;;25.40;71.30;;;;;;5042121;28;21023;-71
2023/07/04 10:45:58;;;;;;;4.20;3.80;;;25.40;71.20;;;;;;5038625;28;20414;-72
2023/07/04 10:48:27;;;;;;;5.13;4.63;;;25.90;69.50;;;;;;5027814;28;20490;-71
2023/07/04 10:51:03;;;;;;;8.57;4.57;;;25.80;71.20;;;;;;5039301;28;20454;-71
2023/07/04 10:53:29;;;;;;;5.63;4.63;;;25.80;71.00;;;;;;5038402;28;20859;-72
2023/07/04 10:56:01;;;;;;;4.73;4.33;;;26.00;70.60;;;;;;5060654;28;20470;-72
2023/07/04 10:58:33;;;;;;;4.73;4.03;;;26.30;69.30;;;;;;5038211;28;20258;-72
2023/07/04 11:01:10;;;;;;;5.27;4.50;;;26.20;69.30;;;;;;5037977;28;20560;-72
2023/07/04 11:04:11;;;;;;;6.33;4.87;;;26.30;70.40;;;;;;5061427;28;20809;-72
2023/07/04 11:06:42;;;;;;;7.43;4.73;;;26.20;70.20;;;;;;4990208;28;20818;-72
2023/07/04 11:09:13;;;;;;;5.83;5.33;;;26.00;69.60;;;;;;5044559;28;20793;-72
2023/07/04 11:11:42;;;;;;;6.33;5.73;;;25.80;70.30;;;;;;5055595;28;20519;-72
2023/07/04 11:14:10;;;;;;;6.90;5.00;;;26.30;69.20;;;;;;5051323;28;20457;-72
2023/07/04 11:16:42;;;;;;;6.83;5.60;;;26.50;69.40;;;;;;5045273;28;20471;-72
2023/07/04 11:19:29;;;;;;;7.93;5.60;;;26.90;67.60;;;;;;5046748;28;20450;-72
2023/07/04 11:22:09;;;;;;;6.10;5.43;;;27.00;66.50;;;;;;5061407;28;20454;-73
2023/07/04 11:24:43;;;;;;;6.23;5.60;;;26.90;68.20;;;;;;5053537;28;20518;-72
2023/07/04 11:27:13;;;;;;;6.07;5.40;;;27.20;67.90;;;;;;5040444;28;20449;-72
2023/07/04 11:29:54;;;;;;;7.10;5.57;;;27.10;66.10;;;;;;5044115;28;20508;-71
2023/07/04 11:32:54;;;;;;;6.70;5.30;;;27.10;66.10;;;;;;5048085;28;20537;-72
2023/07/04 11:35:23;;;;;;;6.73;5.40;;;27.10;66.90;;;;;;5039527;28;20474;-72
2023/07/04 11:38:01;;;;;;;10.30;5.80;;;27.10;65.40;;;;;;5048036;28;20433;-72
2023/07/04 11:40:31;;;;;;;6.33;5.10;;;27.00;64.90;;;;;;5043803;28;20504;-73
2023/07/04 11:43:03;;;;;;;6.97;5.70;;;27.00;67.20;;;;;;5044407;28;20446;-72
2023/07/04 11:45:30;;;;;;;5.70;5.13;;;26.90;66.40;;;;;;5045111;28;20869;-71
2023/07/04 11:48:00;;;;;;;9.20;6.33;;;27.00;64.60;;;;;;5050333;28;20447;-73
2023/07/04 11:50:34;;;;;;;6.53;5.70;;;27.30;62.50;;;;;;5050238;28;20479;-71
2023/07/04 11:53:08;;;;;;;6.60;6.07;;;27.40;61.60;;;;;;5050714;28;20224;-72
2023/07/04 11:55:35;;;;;;;7.70;7.00;;;27.80;60.20;;;;;;5046078;28;20240;-72
2023/07/04 11:58:13;;;;;;;9.13;6.68;;;27.80;59.20;;;;;;5048509;28;20452;-72
2023/07/04 12:00:39;;;;;;;8.05;6.85;;;27.80;59.80;;;;;;5036190;28;20223;-72
2023/07/04 12:03:17;;;;;;;6.63;5.83;;;27.60;59.60;;;;;;5051991;28;20219;-72
2023/07/04 12:05:53;;;;;;;7.00;6.00;;;27.50;59.90;;;;;;5043568;28;20215;-72
2023/07/04 12:08:34;;;;;;;8.27;5.93;;;27.60;59.70;;;;;;5037262;28;21182;-72
2023/07/04 12:11:04;;;;;;;6.05;5.45;;;27.80;60.60;;;;;;5025068;28;20223;-72
2023/07/04 12:13:33;;;;;;;5.50;5.00;;;28.00;59.40;;;;;;5052747;28;20220;-72
2023/07/04 12:15:58;;;;;;;6.95;5.53;;;28.20;59.00;;;;;;5034296;28;20245;-72
2023/07/04 12:18:29;;;;;;;7.25;5.63;;;28.40;58.40;;;;;;5047217;28;20679;-72
2023/07/04 12:20:58;;;;;;;5.72;5.22;;;28.40;57.80;;;;;;5043633;28;20647;-72
2023/07/04 12:23:24;;;;;;;6.85;5.85;;;28.60;58.20;;;;;;5030004;28;20307;-72
2023/07/04 12:25:53;;;;;;;5.97;5.38;;;28.40;57.70;;;;;;5045705;28;20327;-72
2023/07/04 12:28:25;;;;;;;6.35;5.57;;;28.20;57.70;;;;;;5049396;28;21066;-72
2023/07/04 12:30:54;;;;;;;7.00;5.80;;;28.00;57.20;;;;;;5048947;28;20229;-72
2023/07/04 12:33:25;;;;;;;10.75;5.22;;;28.10;57.00;;;;;;5037893;28;20627;-73
2023/07/04 12:35:57;;;;;;;7.32;6.15;;;27.90;57.50;;;;;;5039890;28;20232;-73
2023/07/04 12:38:24;;;;;;;6.57;5.73;;;27.90;57.30;;;;;;5037820;28;20259;-72
2023/07/04 12:40:51;;;;;;;6.50;5.20;;;27.80;57.10;;;;;;5033282;28;20737;-72
2023/07/04 12:43:17;;;;;;;6.30;4.90;;;27.90;57.10;;;;;;5042669;28;20208;-72
2023/07/04 12:45:44;;;;;;;6.67;5.43;;;27.80;57.30;;;;;;5024595;28;20715;-72
2023/07/04 12:48:10;;;;;;;5.72;5.15;;;27.70;57.00;;;;;;5050420;28;20453;-73
2023/07/04 12:50:47;;;;;;;5.87;4.70;;;27.60;57.20;;;;;;5059582;28;20228;-72
2023/07/04 12:53:14;;;;;;;5.90;4.87;;;27.50;57.20;;;;;;5049026;28;20235;-72
2023/07/04 12:55:42;;;;;;;5.70;5.03;;;27.50;57.10;;;;;;5039028;28;20281;-72
2023/07/04 12:58:12;;;;;;;5.10;4.60;;;27.50;57.40;;;;;;5039169;28;20455;-72